sensor_id;sensor_type;location;lat;lon;timestamp;P1;durP1;ratioP1;P2;durP2;ratioP2
11620;SDS011;5866;49.094;11.900;2023-02-11T00:01:34;84.73;;;75.80;;
11620;SDS011;5866;49.094;11.900;2023-02-11T00:04:03;65.20;;;58.23;;
11620;SDS011;5866;49.094;11.900;2023-02-11T00:06:33;52.30;;;35.57;;
11620;SDS011;5866;49.094;11.900;2023-02-11T00:09:02;58.17;;;40.50;;
11620;SDS011;5866;49.094;11.900;2023-02-11T00:11:30;52.27;;;35.97;;
11620;SDS011;5866;49.094;11.900;2023-02-11T00:13:58;52.00;;;35.50;;
11620;SDS011;5866;49.094;11.900;2023-02-11T00:16:28;53.33;;;32.97;;
11620;SDS011;5866;49.094;11.900;2023-02-11T00:18:57;56.93;;;42.50;;
11620;SDS011;5866;49.094;11.900;2023-02-11T00:21:25;59.33;;;47.50;;
11620;SDS011;5866;49.094;11.900;2023-02-11T00:23:55;77.60;;;69.30;;
11620;SDS011;5866;49.094;11.900;2023-02-11T00:26:26;85.20;;;77.20;;
11620;SDS011;5866;49.094;11.900;2023-02-11T00:28:55;85.83;;;77.60;;
11620;SDS011;5866;49.094;11.900;2023-02-11T00:31:23;89.20;;;80.73;;
11620;SDS011;5866;49.094;11.900;2023-02-11T00:33:51;90.97;;;82.50;;
11620;SDS011;5866;49.094;11.900;2023-02-11T00:36:20;82.13;;;74.07;;
11620;SDS011;5866;49.094;11.900;2023-02-11T00:38:50;93.43;;;84.27;;
11620;SDS011;5866;49.094;11.900;2023-02-11T00:41:20;86.00;;;77.73;;
11620;SDS011;5866;49.094;11.900;2023-02-11T00:43:48;89.63;;;80.50;;
11620;SDS011;5866;49.094;11.900;2023-02-11T00:46:17;89.97;;;81.63;;
11620;SDS011;5866;49.094;11.900;2023-02-11T00:48:46;93.13;;;84.13;;
11620;SDS011;5866;49.094;11.900;2023-02-11T00:51:14;96.63;;;87.37;;
11620;SDS011;5866;49.094;11.900;2023-02-11T00:53:41;93.03;;;83.37;;
11620;SDS011;5866;49.094;11.900;2023-02-11T00:56:09;104.50;;;94.83;;
11620;SDS011;5866;49.094;11.900;2023-02-11T00:58:38;100.77;;;91.07;;
11620;SDS011;5866;49.094;11.900;2023-02-11T01:01:05;84.60;;;76.10;;
11620;SDS011;5866;49.094;11.900;2023-02-11T01:03:33;103.30;;;93.63;;
11620;SDS011;5866;49.094;11.900;2023-02-11T01:06:01;94.40;;;85.17;;
11620;SDS011;5866;49.094;11.900;2023-02-11T01:08:29;71.00;;;57.93;;
11620;SDS011;5866;49.094;11.900;2023-02-11T01:10:57;75.97;;;60.17;;
11620;SDS011;5866;49.094;11.900;2023-02-11T01:13:26;73.30;;;57.97;;
11620;SDS011;5866;49.094;11.900;2023-02-11T01:15:56;67.20;;;49.63;;
11620;SDS011;5866;49.094;11.900;2023-02-11T01:18:24;69.60;;;53.80;;
11620;SDS011;5866;49.094;11.900;2023-02-11T01:20:52;66.87;;;46.67;;
11620;SDS011;5866;49.094;11.900;2023-02-11T01:23:21;83.27;;;74.23;;
11620;SDS011;5866;49.094;11.900;2023-02-11T01:25:48;82.87;;;74.53;;
11620;SDS011;5866;49.094;11.900;2023-02-11T01:28:18;70.23;;;62.50;;
11620;SDS011;5866;49.094;11.900;2023-02-11T01:30:47;109.33;;;99.17;;
11620;SDS011;5866;49.094;11.900;2023-02-11T01:33:16;71.93;;;57.53;;
11620;SDS011;5866;49.094;11.900;2023-02-11T01:35:43;76.50;;;63.27;;
11620;SDS011;5866;49.094;11.900;2023-02-11T01:38:14;75.53;;;67.30;;
11620;SDS011;5866;49.094;11.900;2023-02-11T01:40:45;86.27;;;77.27;;
11620;SDS011;5866;49.094;11.900;2023-02-11T01:43:13;69.53;;;49.53;;
11620;SDS011;5866;49.094;11.900;2023-02-11T01:45:53;87.40;;;78.27;;
11620;SDS011;5866;49.094;11.900;2023-02-11T01:48:27;95.77;;;86.03;;
11620;SDS011;5866;49.094;11.900;2023-02-11T01:50:59;80.87;;;72.20;;
11620;SDS011;5866;49.094;11.900;2023-02-11T01:53:29;72.93;;;59.80;;
11620;SDS011;5866;49.094;11.900;2023-02-11T01:56:16;73.07;;;60.43;;
11620;SDS011;5866;49.094;11.900;2023-02-11T01:59:05;71.30;;;63.57;;
11620;SDS011;5866;49.094;11.900;2023-02-11T02:01:37;91.50;;;82.80;;
11620;SDS011;5866;49.094;11.900;2023-02-11T02:04:09;83.67;;;75.10;;
11620;SDS011;5866;49.094;11.900;2023-02-11T02:06:39;81.50;;;70.63;;
11620;SDS011;5866;49.094;11.900;2023-02-11T02:09:14;66.70;;;50.60;;
11620;SDS011;5866;49.094;11.900;2023-02-11T02:11:46;71.77;;;56.57;;
11620;SDS011;5866;49.094;11.900;2023-02-11T02:14:13;72.47;;;63.57;;
11620;SDS011;5866;49.094;11.900;2023-02-11T02:16:41;99.23;;;89.87;;
11620;SDS011;5866;49.094;11.900;2023-02-11T02:19:16;63.87;;;46.83;;
11620;SDS011;5866;49.094;11.900;2023-02-11T02:22:35;77.20;;;69.03;;
11620;SDS011;5866;49.094;11.900;2023-02-11T02:25:18;69.73;;;53.03;;
11620;SDS011;5866;49.094;11.900;2023-02-11T02:28:06;61.43;;;45.60;;
11620;SDS011;5866;49.094;11.900;2023-02-11T02:30:59;72.70;;;47.70;;
11620;SDS011;5866;49.094;11.900;2023-02-11T02:33:45;77.53;;;63.83;;
11620;SDS011;5866;49.094;11.900;2023-02-11T02:36:21;74.50;;;65.07;;
11620;SDS011;5866;49.094;11.900;2023-02-11T02:38:55;69.27;;;46.97;;
11620;SDS011;5866;49.094;11.900;2023-02-11T02:41:26;68.30;;;55.33;;
11620;SDS011;5866;49.094;11.900;2023-02-11T02:43:56;73.77;;;65.50;;
11620;SDS011;5866;49.094;11.900;2023-02-11T02:46:24;81.37;;;64.77;;
11620;SDS011;5866;49.094;11.900;2023-02-11T02:48:55;80.13;;;71.37;;
11620;SDS011;5866;49.094;11.900;2023-02-11T02:51:29;75.97;;;55.63;;
11620;SDS011;5866;49.094;11.900;2023-02-11T02:57:19;62.00;;;40.37;;
11620;SDS011;5866;49.094;11.900;2023-02-11T03:00:03;68.30;;;41.47;;
11620;SDS011;5866;49.094;11.900;2023-02-11T03:02:41;64.37;;;37.40;;
11620;SDS011;5866;49.094;11.900;2023-02-11T03:05:20;59.97;;;39.03;;
11620;SDS011;5866;49.094;11.900;2023-02-11T03:07:54;72.53;;;59.13;;
11620;SDS011;5866;49.094;11.900;2023-02-11T03:10:28;63.40;;;38.57;;
11620;SDS011;5866;49.094;11.900;2023-02-11T03:13:00;62.40;;;35.93;;
11620;SDS011;5866;49.094;11.900;2023-02-11T03:15:29;74.73;;;62.83;;
11620;SDS011;5866;49.094;11.900;2023-02-11T03:18:00;79.30;;;70.80;;
11620;SDS011;5866;49.094;11.900;2023-02-11T03:20:31;67.50;;;45.97;;
11620;SDS011;5866;49.094;11.900;2023-02-11T03:23:03;76.03;;;58.87;;
11620;SDS011;5866;49.094;11.900;2023-02-11T03:25:33;64.90;;;37.67;;
11620;SDS011;5866;49.094;11.900;2023-02-11T03:28:04;71.17;;;37.13;;
11620;SDS011;5866;49.094;11.900;2023-02-11T03:30:40;62.60;;;33.63;;
11620;SDS011;5866;49.094;11.900;2023-02-11T03:33:13;58.57;;;32.70;;
11620;SDS011;5866;49.094;11.900;2023-02-11T03:35:49;69.67;;;33.20;;
11620;SDS011;5866;49.094;11.900;2023-02-11T03:38:20;59.97;;;33.50;;
11620;SDS011;5866;49.094;11.900;2023-02-11T03:40:51;63.73;;;33.53;;
11620;SDS011;5866;49.094;11.900;2023-02-11T03:43:24;61.00;;;32.77;;
11620;SDS011;5866;49.094;11.900;2023-02-11T03:45:54;57.30;;;31.73;;
11620;SDS011;5866;49.094;11.900;2023-02-11T03:48:24;59.80;;;32.80;;
11620;SDS011;5866;49.094;11.900;2023-02-11T03:50:57;56.17;;;32.00;;
11620;SDS011;5866;49.094;11.900;2023-02-11T03:53:27;59.43;;;33.37;;
11620;SDS011;5866;49.094;11.900;2023-02-11T03:55:55;58.70;;;33.00;;
11620;SDS011;5866;49.094;11.900;2023-02-11T03:58:26;63.40;;;37.13;;
11620;SDS011;5866;49.094;11.900;2023-02-11T04:00:53;59.40;;;34.97;;
11620;SDS011;5866;49.094;11.900;2023-02-11T04:03:21;55.13;;;34.30;;
11620;SDS011;5866;49.094;11.900;2023-02-11T04:05:49;56.30;;;35.50;;
11620;SDS011;5866;49.094;11.900;2023-02-11T04:08:18;63.97;;;36.77;;
11620;SDS011;5866;49.094;11.900;2023-02-11T04:10:45;62.47;;;38.47;;
11620;SDS011;5866;49.094;11.900;2023-02-11T04:13:13;59.43;;;40.57;;
11620;SDS011;5866;49.094;11.900;2023-02-11T04:15:40;59.90;;;41.23;;
11620;SDS011;5866;49.094;11.900;2023-02-11T04:18:08;66.57;;;43.20;;
11620;SDS011;5866;49.094;11.900;2023-02-11T04:20:35;59.90;;;39.57;;
11620;SDS011;5866;49.094;11.900;2023-02-11T04:23:03;63.60;;;40.33;;
11620;SDS011;5866;49.094;11.900;2023-02-11T04:25:32;61.70;;;38.17;;
11620;SDS011;5866;49.094;11.900;2023-02-11T04:27:59;59.87;;;36.83;;
11620;SDS011;5866;49.094;11.900;2023-02-11T04:30:27;55.90;;;36.93;;
11620;SDS011;5866;49.094;11.900;2023-02-11T04:32:54;61.83;;;38.20;;
11620;SDS011;5866;49.094;11.900;2023-02-11T04:35:24;64.97;;;41.07;;
11620;SDS011;5866;49.094;11.900;2023-02-11T04:37:51;57.17;;;37.67;;
11620;SDS011;5866;49.094;11.900;2023-02-11T04:40:19;54.20;;;35.30;;
11620;SDS011;5866;49.094;11.900;2023-02-11T04:42:48;55.87;;;32.87;;
11620;SDS011;5866;49.094;11.900;2023-02-11T04:45:15;53.53;;;38.37;;
11620;SDS011;5866;49.094;11.900;2023-02-11T04:47:43;53.40;;;32.80;;
11620;SDS011;5866;49.094;11.900;2023-02-11T04:50:10;53.83;;;31.00;;
11620;SDS011;5866;49.094;11.900;2023-02-11T04:52:38;47.57;;;24.70;;
11620;SDS011;5866;49.094;11.900;2023-02-11T04:55:06;51.60;;;29.00;;
11620;SDS011;5866;49.094;11.900;2023-02-11T04:57:33;55.40;;;28.57;;
11620;SDS011;5866;49.094;11.900;2023-02-11T05:00:02;53.23;;;29.20;;
11620;SDS011;5866;49.094;11.900;2023-02-11T05:02:31;53.83;;;28.30;;
11620;SDS011;5866;49.094;11.900;2023-02-11T05:04:58;49.93;;;28.97;;
11620;SDS011;5866;49.094;11.900;2023-02-11T05:07:26;50.13;;;27.03;;
11620;SDS011;5866;49.094;11.900;2023-02-11T05:09:53;51.50;;;28.13;;
11620;SDS011;5866;49.094;11.900;2023-02-11T05:12:21;52.27;;;27.00;;
11620;SDS011;5866;49.094;11.900;2023-02-11T05:14:48;51.43;;;27.00;;
11620;SDS011;5866;49.094;11.900;2023-02-11T05:17:17;47.90;;;27.93;;
11620;SDS011;5866;49.094;11.900;2023-02-11T05:19:44;49.83;;;27.93;;
11620;SDS011;5866;49.094;11.900;2023-02-11T05:22:12;50.33;;;28.67;;
11620;SDS011;5866;49.094;11.900;2023-02-11T05:24:39;49.60;;;27.43;;
11620;SDS011;5866;49.094;11.900;2023-02-11T05:27:07;44.27;;;25.53;;
11620;SDS011;5866;49.094;11.900;2023-02-11T05:29:35;56.13;;;29.50;;
11620;SDS011;5866;49.094;11.900;2023-02-11T05:32:03;44.17;;;28.43;;
11620;SDS011;5866;49.094;11.900;2023-02-11T05:34:33;52.57;;;30.90;;
11620;SDS011;5866;49.094;11.900;2023-02-11T05:37:01;51.97;;;30.70;;
11620;SDS011;5866;49.094;11.900;2023-02-11T05:39:28;46.30;;;27.43;;
11620;SDS011;5866;49.094;11.900;2023-02-11T05:41:56;42.90;;;28.07;;
11620;SDS011;5866;49.094;11.900;2023-02-11T05:44:23;47.53;;;29.50;;
11620;SDS011;5866;49.094;11.900;2023-02-11T05:46:51;44.93;;;27.53;;
11620;SDS011;5866;49.094;11.900;2023-02-11T05:49:19;45.63;;;27.50;;
11620;SDS011;5866;49.094;11.900;2023-02-11T05:51:47;42.23;;;26.63;;
11620;SDS011;5866;49.094;11.900;2023-02-11T05:54:15;44.53;;;28.33;;
11620;SDS011;5866;49.094;11.900;2023-02-11T05:56:43;41.57;;;27.20;;
11620;SDS011;5866;49.094;11.900;2023-02-11T05:59:11;38.37;;;25.50;;
11620;SDS011;5866;49.094;11.900;2023-02-11T06:01:40;38.47;;;24.80;;
11620;SDS011;5866;49.094;11.900;2023-02-11T06:04:07;38.53;;;24.10;;
11620;SDS011;5866;49.094;11.900;2023-02-11T06:06:35;36.23;;;21.43;;
11620;SDS011;5866;49.094;11.900;2023-02-11T06:09:04;36.33;;;23.53;;
11620;SDS011;5866;49.094;11.900;2023-02-11T06:11:31;35.20;;;21.13;;
11620;SDS011;5866;49.094;11.900;2023-02-11T06:13:59;38.30;;;23.00;;
11620;SDS011;5866;49.094;11.900;2023-02-11T06:16:27;28.53;;;17.73;;
11620;SDS011;5866;49.094;11.900;2023-02-11T06:18:55;30.27;;;18.60;;
11620;SDS011;5866;49.094;11.900;2023-02-11T06:21:22;29.87;;;16.77;;
11620;SDS011;5866;49.094;11.900;2023-02-11T06:24:01;32.57;;;18.60;;
11620;SDS011;5866;49.094;11.900;2023-02-11T06:26:30;30.30;;;18.70;;
11620;SDS011;5866;49.094;11.900;2023-02-11T06:28:58;31.03;;;18.10;;
11620;SDS011;5866;49.094;11.900;2023-02-11T06:31:26;34.60;;;20.07;;
11620;SDS011;5866;49.094;11.900;2023-02-11T06:33:53;34.37;;;19.03;;
11620;SDS011;5866;49.094;11.900;2023-02-11T06:36:21;33.13;;;20.13;;
11620;SDS011;5866;49.094;11.900;2023-02-11T06:38:49;31.63;;;19.77;;
11620;SDS011;5866;49.094;11.900;2023-02-11T06:41:17;35.23;;;23.03;;
11620;SDS011;5866;49.094;11.900;2023-02-11T06:43:47;33.30;;;22.87;;
11620;SDS011;5866;49.094;11.900;2023-02-11T06:46:15;33.80;;;21.67;;
11620;SDS011;5866;49.094;11.900;2023-02-11T06:48:43;31.33;;;20.07;;
11620;SDS011;5866;49.094;11.900;2023-02-11T06:51:11;32.53;;;21.20;;
11620;SDS011;5866;49.094;11.900;2023-02-11T06:53:40;30.80;;;19.37;;
11620;SDS011;5866;49.094;11.900;2023-02-11T06:56:09;30.23;;;20.00;;
11620;SDS011;5866;49.094;11.900;2023-02-11T06:58:38;28.93;;;18.07;;
11620;SDS011;5866;49.094;11.900;2023-02-11T07:01:09;33.67;;;19.27;;
11620;SDS011;5866;49.094;11.900;2023-02-11T07:03:38;38.77;;;20.70;;
11620;SDS011;5866;49.094;11.900;2023-02-11T07:06:10;34.90;;;21.97;;
11620;SDS011;5866;49.094;11.900;2023-02-11T07:08:39;29.40;;;18.17;;
11620;SDS011;5866;49.094;11.900;2023-02-11T07:11:08;30.50;;;18.50;;
11620;SDS011;5866;49.094;11.900;2023-02-11T07:13:37;31.10;;;18.60;;
11620;SDS011;5866;49.094;11.900;2023-02-11T07:16:05;31.17;;;19.00;;
11620;SDS011;5866;49.094;11.900;2023-02-11T07:18:34;28.73;;;18.83;;
11620;SDS011;5866;49.094;11.900;2023-02-11T07:21:03;31.93;;;17.63;;
11620;SDS011;5866;49.094;11.900;2023-02-11T07:23:31;33.97;;;18.77;;
11620;SDS011;5866;49.094;11.900;2023-02-11T07:26:01;31.87;;;18.83;;
11620;SDS011;5866;49.094;11.900;2023-02-11T07:28:29;31.67;;;18.53;;
11620;SDS011;5866;49.094;11.900;2023-02-11T07:30:57;28.83;;;18.53;;
11620;SDS011;5866;49.094;11.900;2023-02-11T07:33:24;30.70;;;19.83;;
11620;SDS011;5866;49.094;11.900;2023-02-11T07:35:53;31.93;;;20.23;;
11620;SDS011;5866;49.094;11.900;2023-02-11T07:38:20;32.43;;;20.97;;
11620;SDS011;5866;49.094;11.900;2023-02-11T07:40:48;34.57;;;24.37;;
11620;SDS011;5866;49.094;11.900;2023-02-11T07:43:15;32.33;;;24.83;;
11620;SDS011;5866;49.094;11.900;2023-02-11T07:45:43;30.63;;;21.50;;
11620;SDS011;5866;49.094;11.900;2023-02-11T07:48:10;34.77;;;25.63;;
11620;SDS011;5866;49.094;11.900;2023-02-11T07:50:38;32.30;;;23.20;;
11620;SDS011;5866;49.094;11.900;2023-02-11T07:53:07;31.43;;;24.40;;
11620;SDS011;5866;49.094;11.900;2023-02-11T07:55:34;39.67;;;33.30;;
11620;SDS011;5866;49.094;11.900;2023-02-11T07:58:02;33.07;;;25.53;;
11620;SDS011;5866;49.094;11.900;2023-02-11T08:00:29;38.37;;;34.67;;
11620;SDS011;5866;49.094;11.900;2023-02-11T08:02:57;38.37;;;34.27;;
11620;SDS011;5866;49.094;11.900;2023-02-11T08:05:24;41.47;;;37.30;;
11620;SDS011;5866;49.094;11.900;2023-02-11T08:07:52;44.07;;;39.77;;
11620;SDS011;5866;49.094;11.900;2023-02-11T08:10:21;39.23;;;35.53;;
11620;SDS011;5866;49.094;11.900;2023-02-11T08:12:49;38.60;;;34.57;;
11620;SDS011;5866;49.094;11.900;2023-02-11T08:15:16;43.53;;;39.27;;
11620;SDS011;5866;49.094;11.900;2023-02-11T08:17:44;53.77;;;48.90;;
11620;SDS011;5866;49.094;11.900;2023-02-11T08:20:11;55.33;;;50.37;;
11620;SDS011;5866;49.094;11.900;2023-02-11T08:22:39;63.50;;;58.37;;
11620;SDS011;5866;49.094;11.900;2023-02-11T08:25:07;48.90;;;44.53;;
11620;SDS011;5866;49.094;11.900;2023-02-11T08:27:36;40.60;;;36.73;;
11620;SDS011;5866;49.094;11.900;2023-02-11T08:30:03;67.80;;;62.50;;
11620;SDS011;5866;49.094;11.900;2023-02-11T08:32:33;66.53;;;61.10;;
11620;SDS011;5866;49.094;11.900;2023-02-11T08:35:01;68.53;;;62.87;;
11620;SDS011;5866;49.094;11.900;2023-02-11T08:37:28;72.83;;;67.23;;
11620;SDS011;5866;49.094;11.900;2023-02-11T08:39:58;76.93;;;70.83;;
11620;SDS011;5866;49.094;11.900;2023-02-11T08:42:25;62.07;;;56.93;;
11620;SDS011;5866;49.094;11.900;2023-02-11T08:44:54;59.83;;;54.93;;
11620;SDS011;5866;49.094;11.900;2023-02-11T08:47:22;60.43;;;55.43;;
11620;SDS011;5866;49.094;11.900;2023-02-11T08:49:49;61.47;;;56.47;;
11620;SDS011;5866;49.094;11.900;2023-02-11T08:52:17;62.37;;;57.37;;
11620;SDS011;5866;49.094;11.900;2023-02-11T08:54:44;49.10;;;44.73;;
11620;SDS011;5866;49.094;11.900;2023-02-11T08:57:12;40.50;;;36.80;;
11620;SDS011;5866;49.094;11.900;2023-02-11T08:59:39;51.93;;;47.67;;
11620;SDS011;5866;49.094;11.900;2023-02-11T09:02:09;64.20;;;59.20;;
11620;SDS011;5866;49.094;11.900;2023-02-11T09:04:38;65.57;;;60.17;;
11620;SDS011;5866;49.094;11.900;2023-02-11T09:07:06;60.63;;;55.70;;
11620;SDS011;5866;49.094;11.900;2023-02-11T09:09:34;57.33;;;52.63;;
11620;SDS011;5866;49.094;11.900;2023-02-11T09:12:01;64.57;;;59.47;;
11620;SDS011;5866;49.094;11.900;2023-02-11T09:14:29;59.53;;;54.57;;
11620;SDS011;5866;49.094;11.900;2023-02-11T09:16:56;61.57;;;56.67;;
11620;SDS011;5866;49.094;11.900;2023-02-11T09:19:25;62.10;;;57.23;;
11620;SDS011;5866;49.094;11.900;2023-02-11T09:21:52;53.10;;;48.60;;
11620;SDS011;5866;49.094;11.900;2023-02-11T09:24:20;38.37;;;34.43;;
11620;SDS011;5866;49.094;11.900;2023-02-11T09:26:47;36.07;;;32.47;;
11620;SDS011;5866;49.094;11.900;2023-02-11T09:29:15;29.10;;;26.03;;
11620;SDS011;5866;49.094;11.900;2023-02-11T09:31:43;30.93;;;27.67;;
11620;SDS011;5866;49.094;11.900;2023-02-11T09:34:11;34.20;;;30.33;;
11620;SDS011;5866;49.094;11.900;2023-02-11T09:36:41;38.77;;;34.87;;
11620;SDS011;5866;49.094;11.900;2023-02-11T09:39:10;37.83;;;33.93;;
11620;SDS011;5866;49.094;11.900;2023-02-11T09:41:53;32.40;;;25.93;;
11620;SDS011;5866;49.094;11.900;2023-02-11T09:44:43;33.97;;;30.47;;
11620;SDS011;5866;49.094;11.900;2023-02-11T09:47:16;27.30;;;21.07;;
11620;SDS011;5866;49.094;11.900;2023-02-11T09:49:50;24.80;;;18.00;;
11620;SDS011;5866;49.094;11.900;2023-02-11T09:52:27;25.27;;;17.37;;
11620;SDS011;5866;49.094;11.900;2023-02-11T09:55:03;27.03;;;17.27;;
11620;SDS011;5866;49.094;11.900;2023-02-11T09:57:37;28.23;;;16.67;;
11620;SDS011;5866;49.094;11.900;2023-02-11T10:00:15;30.97;;;17.67;;
11620;SDS011;5866;49.094;11.900;2023-02-11T10:02:52;26.60;;;16.33;;
11620;SDS011;5866;49.094;11.900;2023-02-11T10:05:31;25.43;;;17.30;;
11620;SDS011;5866;49.094;11.900;2023-02-11T10:08:12;28.83;;;18.10;;
11620;SDS011;5866;49.094;11.900;2023-02-11T10:10:46;25.30;;;16.47;;
11620;SDS011;5866;49.094;11.900;2023-02-11T10:13:26;23.90;;;17.00;;
11620;SDS011;5866;49.094;11.900;2023-02-11T10:16:04;24.53;;;16.27;;
11620;SDS011;5866;49.094;11.900;2023-02-11T10:18:45;26.40;;;15.53;;
11620;SDS011;5866;49.094;11.900;2023-02-11T10:21:35;25.63;;;16.17;;
11620;SDS011;5866;49.094;11.900;2023-02-11T10:24:13;24.03;;;15.43;;
11620;SDS011;5866;49.094;11.900;2023-02-11T10:26:42;24.73;;;16.77;;
11620;SDS011;5866;49.094;11.900;2023-02-11T10:29:13;25.33;;;19.60;;
11620;SDS011;5866;49.094;11.900;2023-02-11T10:31:52;23.07;;;16.10;;
11620;SDS011;5866;49.094;11.900;2023-02-11T10:34:23;21.10;;;15.43;;
11620;SDS011;5866;49.094;11.900;2023-02-11T10:36:50;21.40;;;15.80;;
11620;SDS011;5866;49.094;11.900;2023-02-11T10:39:20;23.70;;;14.97;;
11620;SDS011;5866;49.094;11.900;2023-02-11T10:41:50;22.67;;;15.20;;
11620;SDS011;5866;49.094;11.900;2023-02-11T10:44:23;23.47;;;15.33;;
11620;SDS011;5866;49.094;11.900;2023-02-11T10:46:55;21.83;;;14.57;;
11620;SDS011;5866;49.094;11.900;2023-02-11T10:49:34;23.33;;;14.93;;
11620;SDS011;5866;49.094;11.900;2023-02-11T10:52:11;22.57;;;15.83;;
11620;SDS011;5866;49.094;11.900;2023-02-11T10:54:56;20.20;;;14.53;;
11620;SDS011;5866;49.094;11.900;2023-02-11T10:57:25;22.63;;;15.17;;
11620;SDS011;5866;49.094;11.900;2023-02-11T10:59:57;23.60;;;17.43;;
11620;SDS011;5866;49.094;11.900;2023-02-11T11:02:29;26.73;;;19.07;;
11620;SDS011;5866;49.094;11.900;2023-02-11T11:05:00;23.37;;;15.97;;
11620;SDS011;5866;49.094;11.900;2023-02-11T11:07:30;21.97;;;16.60;;
11620;SDS011;5866;49.094;11.900;2023-02-11T11:10:02;21.63;;;15.87;;
11620;SDS011;5866;49.094;11.900;2023-02-11T11:12:32;23.47;;;15.57;;
11620;SDS011;5866;49.094;11.900;2023-02-11T11:15:13;23.50;;;17.93;;
11620;SDS011;5866;49.094;11.900;2023-02-11T11:17:47;25.43;;;14.97;;
11620;SDS011;5866;49.094;11.900;2023-02-11T11:20:18;20.37;;;14.90;;
11620;SDS011;5866;49.094;11.900;2023-02-11T11:22:48;21.23;;;14.90;;
11620;SDS011;5866;49.094;11.900;2023-02-11T11:25:25;22.50;;;15.47;;
11620;SDS011;5866;49.094;11.900;2023-02-11T11:27:55;18.83;;;13.30;;
11620;SDS011;5866;49.094;11.900;2023-02-11T11:30:26;20.37;;;14.73;;
11620;SDS011;5866;49.094;11.900;2023-02-11T11:32:59;20.80;;;15.07;;
11620;SDS011;5866;49.094;11.900;2023-02-11T11:35:28;22.83;;;14.30;;
11620;SDS011;5866;49.094;11.900;2023-02-11T11:37:58;18.07;;;12.30;;
11620;SDS011;5866;49.094;11.900;2023-02-11T11:40:30;20.73;;;13.03;;
11620;SDS011;5866;49.094;11.900;2023-02-11T11:43:03;19.27;;;12.27;;
11620;SDS011;5866;49.094;11.900;2023-02-11T11:45:33;18.73;;;12.40;;
11620;SDS011;5866;49.094;11.900;2023-02-11T11:48:02;18.27;;;13.37;;
11620;SDS011;5866;49.094;11.900;2023-02-11T11:50:36;19.43;;;13.10;;
11620;SDS011;5866;49.094;11.900;2023-02-11T11:53:09;19.60;;;12.77;;
11620;SDS011;5866;49.094;11.900;2023-02-11T11:55:44;18.33;;;12.07;;
11620;SDS011;5866;49.094;11.900;2023-02-11T11:58:16;18.40;;;11.40;;
11620;SDS011;5866;49.094;11.900;2023-02-11T12:00:49;20.63;;;13.07;;
11620;SDS011;5866;49.094;11.900;2023-02-11T12:03:27;18.10;;;12.47;;
11620;SDS011;5866;49.094;11.900;2023-02-11T12:06:10;16.47;;;11.10;;
11620;SDS011;5866;49.094;11.900;2023-02-11T12:08:50;17.87;;;12.20;;
11620;SDS011;5866;49.094;11.900;2023-02-11T12:11:28;18.20;;;13.13;;
11620;SDS011;5866;49.094;11.900;2023-02-11T12:14:05;20.67;;;12.33;;
11620;SDS011;5866;49.094;11.900;2023-02-11T12:16:42;15.07;;;11.20;;
11620;SDS011;5866;49.094;11.900;2023-02-11T12:19:32;19.17;;;11.90;;
11620;SDS011;5866;49.094;11.900;2023-02-11T12:22:32;18.43;;;11.63;;
11620;SDS011;5866;49.094;11.900;2023-02-11T12:25:19;16.97;;;12.53;;
11620;SDS011;5866;49.094;11.900;2023-02-11T12:28:02;18.43;;;12.13;;
11620;SDS011;5866;49.094;11.900;2023-02-11T12:30:48;17.47;;;11.67;;
11620;SDS011;5866;49.094;11.900;2023-02-11T12:33:27;17.23;;;12.87;;
11620;SDS011;5866;49.094;11.900;2023-02-11T12:36:07;22.07;;;12.77;;
11620;SDS011;5866;49.094;11.900;2023-02-11T12:38:45;18.03;;;12.07;;
11620;SDS011;5866;49.094;11.900;2023-02-11T12:41:28;18.93;;;12.67;;
11620;SDS011;5866;49.094;11.900;2023-02-11T12:44:28;17.70;;;12.20;;
11620;SDS011;5866;49.094;11.900;2023-02-11T12:47:06;17.73;;;12.37;;
11620;SDS011;5866;49.094;11.900;2023-02-11T12:49:44;19.47;;;11.63;;
11620;SDS011;5866;49.094;11.900;2023-02-11T12:52:33;17.00;;;11.30;;
11620;SDS011;5866;49.094;11.900;2023-02-11T12:55:17;17.40;;;8.57;;
11620;SDS011;5866;49.094;11.900;2023-02-11T12:57:49;12.03;;;8.47;;
11620;SDS011;5866;49.094;11.900;2023-02-11T13:00:19;16.20;;;10.33;;
11620;SDS011;5866;49.094;11.900;2023-02-11T13:02:53;14.93;;;9.27;;
11620;SDS011;5866;49.094;11.900;2023-02-11T13:05:26;12.87;;;8.97;;
11620;SDS011;5866;49.094;11.900;2023-02-11T13:08:00;12.00;;;8.87;;
11620;SDS011;5866;49.094;11.900;2023-02-11T13:10:31;13.93;;;9.33;;
11620;SDS011;5866;49.094;11.900;2023-02-11T13:13:02;13.77;;;9.90;;
11620;SDS011;5866;49.094;11.900;2023-02-11T13:15:44;16.10;;;9.17;;
11620;SDS011;5866;49.094;11.900;2023-02-11T13:18:30;15.03;;;9.80;;
11620;SDS011;5866;49.094;11.900;2023-02-11T13:24:00;17.67;;;10.03;;
11620;SDS011;5866;49.094;11.900;2023-02-11T13:26:37;15.67;;;10.47;;
11620;SDS011;5866;49.094;11.900;2023-02-11T13:29:17;18.87;;;11.07;;
11620;SDS011;5866;49.094;11.900;2023-02-11T13:31:53;15.20;;;10.37;;
11620;SDS011;5866;49.094;11.900;2023-02-11T13:34:22;14.20;;;10.37;;
11620;SDS011;5866;49.094;11.900;2023-02-11T13:36:55;19.70;;;12.43;;
11620;SDS011;5866;49.094;11.900;2023-02-11T13:39:24;13.13;;;9.97;;
11620;SDS011;5866;49.094;11.900;2023-02-11T13:41:52;17.90;;;10.80;;
11620;SDS011;5866;49.094;11.900;2023-02-11T13:44:28;13.60;;;10.57;;
11620;SDS011;5866;49.094;11.900;2023-02-11T13:47:00;15.80;;;10.70;;
11620;SDS011;5866;49.094;11.900;2023-02-11T13:49:30;17.57;;;10.87;;
11620;SDS011;5866;49.094;11.900;2023-02-11T13:52:02;14.90;;;9.77;;
11620;SDS011;5866;49.094;11.900;2023-02-11T13:54:33;17.63;;;10.67;;
11620;SDS011;5866;49.094;11.900;2023-02-11T13:57:14;12.73;;;9.33;;
11620;SDS011;5866;49.094;11.900;2023-02-11T13:59:49;15.40;;;10.17;;
11620;SDS011;5866;49.094;11.900;2023-02-11T14:02:21;14.53;;;9.87;;
11620;SDS011;5866;49.094;11.900;2023-02-11T14:08:14;14.37;;;8.67;;
11620;SDS011;5866;49.094;11.900;2023-02-11T14:11:04;12.53;;;8.73;;
11620;SDS011;5866;49.094;11.900;2023-02-11T14:14:13;14.23;;;9.77;;
11620;SDS011;5866;49.094;11.900;2023-02-11T14:19:50;14.60;;;9.17;;
11620;SDS011;5866;49.094;11.900;2023-02-11T14:22:19;11.43;;;8.10;;
11620;SDS011;5866;49.094;11.900;2023-02-11T14:24:52;12.07;;;8.97;;
11620;SDS011;5866;49.094;11.900;2023-02-11T14:27:24;12.67;;;8.87;;
11620;SDS011;5866;49.094;11.900;2023-02-11T14:30:07;9.60;;;6.73;;
11620;SDS011;5866;49.094;11.900;2023-02-11T14:32:49;14.47;;;9.03;;
11620;SDS011;5866;49.094;11.900;2023-02-11T14:35:28;16.40;;;8.93;;
11620;SDS011;5866;49.094;11.900;2023-02-11T14:38:02;15.10;;;9.03;;
11620;SDS011;5866;49.094;11.900;2023-02-11T14:40:41;16.77;;;9.13;;
11620;SDS011;5866;49.094;11.900;2023-02-11T14:43:17;13.83;;;8.50;;
11620;SDS011;5866;49.094;11.900;2023-02-11T14:45:48;12.87;;;10.03;;
11620;SDS011;5866;49.094;11.900;2023-02-11T14:48:18;34.03;;;17.27;;
11620;SDS011;5866;49.094;11.900;2023-02-11T14:50:47;16.20;;;9.40;;
11620;SDS011;5866;49.094;11.900;2023-02-11T14:53:19;24.30;;;14.00;;
11620;SDS011;5866;49.094;11.900;2023-02-11T14:55:49;13.57;;;9.27;;
11620;SDS011;5866;49.094;11.900;2023-02-11T14:58:19;15.23;;;9.30;;
11620;SDS011;5866;49.094;11.900;2023-02-11T15:00:51;16.37;;;8.60;;
11620;SDS011;5866;49.094;11.900;2023-02-11T15:03:24;15.57;;;9.67;;